createdAt,value
2022-11-02T08:57:56.968Z,15.30
2022-11-02T09:00:46.695Z,15.10
2022-11-02T09:03:36.112Z,15.20
2022-11-02T09:06:25.234Z,15.10
2022-11-02T09:09:14.124Z,15.10
2022-11-02T09:12:03.160Z,15.20
2022-11-02T09:14:54.075Z,15.20
2022-11-02T09:17:43.684Z,15.30
2022-11-02T09:20:33.187Z,15.30
2022-11-02T09:23:23.332Z,15.30
2022-11-02T09:26:12.951Z,15.50
2022-11-02T09:29:02.601Z,15.50
2022-11-02T09:31:53.667Z,15.60
2022-11-02T09:34:43.054Z,15.50
2022-11-02T09:37:32.839Z,15.50
2022-11-02T09:40:23.924Z,15.50
2022-11-02T09:43:22.047Z,15.40
2022-11-02T09:46:14.997Z,15.40
2022-11-02T09:49:08.443Z,15.50
2022-11-02T09:51:59.234Z,15.50
2022-11-02T09:54:53.456Z,15.60
2022-11-02T09:57:46.638Z,15.60
2022-11-02T10:00:40.943Z,15.70
2022-11-02T10:03:40.814Z,15.70
2022-11-02T10:06:33.337Z,15.70
2022-11-02T10:09:29.559Z,15.70
2022-11-02T10:12:26.448Z,15.70
2022-11-02T10:15:20.972Z,15.70
2022-11-02T10:18:17.909Z,15.60
2022-11-02T10:21:09.840Z,15.30
2022-11-02T10:24:05.364Z,15.10
2022-11-02T10:26:58.201Z,15.20
2022-11-02T10:29:55.300Z,15.30
2022-11-02T10:32:46.331Z,15.40
2022-11-02T10:36:04.861Z,15.50
2022-11-02T10:39:07.005Z,15.50
2022-11-02T10:42:18.684Z,15.60
2022-11-02T10:45:34.234Z,15.50
2022-11-02T10:48:34.331Z,15.50
2022-11-02T10:51:24.943Z,15.50
2022-11-02T10:54:21.574Z,15.50
2022-11-02T10:57:24.307Z,15.60
2022-11-02T11:00:31.632Z,15.50
2022-11-02T11:03:21.302Z,15.40
2022-11-02T11:06:13.865Z,15.50
2022-11-02T11:09:06.742Z,15.50
2022-11-02T11:12:00.563Z,15.60
2022-11-02T11:21:20.323Z,15.40
2022-11-02T11:24:27.989Z,15.50
2022-11-02T11:27:21.024Z,15.50
2022-11-02T11:30:58.218Z,15.50
2022-11-02T11:33:43.216Z,15.40
2022-11-02T11:36:34.937Z,15.50
2022-11-02T11:39:29.385Z,15.70
2022-11-02T11:42:23.946Z,15.80
2022-11-02T11:45:21.755Z,15.60
2022-11-02T11:48:26.619Z,15.50
2022-11-02T11:51:30.276Z,15.60
2022-11-02T11:54:23.865Z,15.70
2022-11-02T12:20:53.257Z,16.20
2022-11-02T12:23:54.977Z,16.20
2022-11-02T12:26:58.342Z,16.30
2022-11-02T12:30:08.225Z,16.30
2022-11-02T12:33:10.092Z,16.30
2022-11-02T12:36:12.533Z,16.40
2022-11-02T12:39:09.558Z,16.40
2022-11-02T12:42:12.870Z,16.30
2022-11-02T12:45:21.605Z,16.30
2022-11-02T12:48:20.926Z,16.30
2022-11-02T12:51:14.160Z,16.20
2022-11-02T12:54:11.929Z,16.20
2022-11-02T12:57:01.632Z,16.20
2022-11-02T12:59:55.180Z,16.20
2022-11-02T13:02:56.866Z,16.20
2022-11-02T13:05:51.244Z,16.30
2022-11-02T13:08:46.541Z,16.20
2022-11-02T13:11:39.641Z,16.20
2022-11-02T13:14:36.242Z,16.30
2022-11-02T13:17:28.905Z,16.30
2022-11-02T13:20:23.856Z,16.30
2022-11-02T13:23:19.727Z,16.20
2022-11-02T13:26:27.022Z,16.30
2022-11-02T13:29:20.711Z,16.30
2022-11-02T13:32:15.818Z,16.40
2022-11-02T13:35:16.910Z,16.40
2022-11-02T13:38:25.407Z,16.40
2022-11-02T13:41:31.069Z,16.40
2022-11-02T13:44:55.655Z,16.50
2022-11-02T13:48:06.468Z,16.50
2022-11-02T13:50:59.484Z,16.50
2022-11-02T13:53:57.375Z,16.50
2022-11-02T13:56:48.678Z,16.50
2022-11-02T13:59:43.204Z,16.40
2022-11-02T14:02:38.089Z,16.40
2022-11-02T14:05:30.529Z,16.40
2022-11-02T14:08:28.385Z,16.40
2022-11-02T14:11:37.205Z,16.50
2022-11-02T14:14:26.733Z,16.40
2022-11-02T14:17:17.452Z,16.40
2022-11-02T14:20:34.226Z,16.40
2022-11-02T14:23:38.295Z,16.40
2022-11-02T14:26:56.264Z,16.40
2022-11-02T14:29:54.284Z,16.30
2022-11-02T14:32:53.097Z,16.30
2022-11-02T14:35:46.184Z,16.40
2022-11-02T14:38:58.445Z,16.40
2022-11-02T14:42:35.031Z,16.30
2022-11-02T14:45:37.945Z,16.40
2022-11-02T14:48:32.351Z,16.40
2022-11-02T14:51:25.103Z,16.40
2022-11-02T14:54:19.717Z,16.40
2022-11-02T14:57:19.994Z,16.40
2022-11-02T15:00:21.207Z,16.30
2022-11-02T15:03:34.467Z,16.40
2022-11-02T15:06:26.507Z,16.30
2022-11-02T15:09:35.630Z,16.30
2022-11-02T15:12:38.594Z,16.30
2022-11-02T15:15:34.811Z,16.30
2022-11-02T15:18:32.878Z,16.40
2022-11-02T15:21:40.863Z,16.30
2022-11-02T15:24:31.959Z,16.30
2022-11-02T15:27:22.946Z,16.30
2022-11-02T15:30:16.223Z,16.30
2022-11-02T15:33:07.461Z,16.30
2022-11-02T15:35:57.304Z,16.50
2022-11-02T15:38:53.388Z,16.30
2022-11-02T15:41:47.051Z,16.50
2022-11-02T15:45:14.104Z,16.40
2022-11-02T15:48:26.979Z,16.30
2022-11-02T15:51:25.289Z,16.40
2022-11-02T15:54:34.955Z,16.40
2022-11-02T15:57:40.619Z,16.30
2022-11-02T16:00:33.127Z,16.10
2022-11-02T16:03:22.632Z,16.10
2022-11-02T16:06:12.296Z,16.10
2022-11-02T16:09:05.273Z,16.10
2022-11-02T16:12:05.475Z,16.10
2022-11-02T16:14:57.902Z,16.10
2022-11-02T16:17:49.815Z,16.20
2022-11-02T16:20:41.206Z,16.20
2022-11-02T16:23:32.189Z,16.10
2022-11-02T16:26:23.605Z,16.10
2022-11-02T16:29:27.311Z,16.00
2022-11-02T16:32:17.511Z,16.00
2022-11-02T16:35:07.377Z,16.00
2022-11-02T16:37:58.809Z,16.00
2022-11-02T16:40:47.881Z,16.00
2022-11-02T16:43:42.982Z,16.00
2022-11-02T16:46:44.489Z,16.00
2022-11-02T16:49:35.475Z,16.00
2022-11-02T16:52:27.305Z,16.00
2022-11-02T16:55:39.784Z,16.00
2022-11-02T16:58:30.062Z,16.00
2022-11-02T17:01:24.046Z,16.00
2022-11-02T17:04:21.457Z,16.00
2022-11-02T17:07:15.831Z,16.10
2022-11-02T17:10:07.213Z,16.10
2022-11-02T17:12:58.306Z,16.10
2022-11-02T17:15:50.362Z,16.20
2022-11-02T17:18:39.700Z,16.20
2022-11-02T17:21:31.653Z,16.20
2022-11-02T17:24:35.637Z,16.20
2022-11-02T17:27:26.840Z,16.20
2022-11-02T17:30:46.484Z,16.20
2022-11-02T17:33:35.144Z,16.30
2022-11-02T17:36:27.307Z,16.20
2022-11-02T17:39:19.091Z,16.20
2022-11-02T17:42:28.183Z,16.20
2022-11-02T17:45:37.694Z,16.20
2022-11-02T17:48:29.111Z,16.10
2022-11-02T17:51:19.778Z,16.10
2022-11-02T17:54:10.783Z,16.10
2022-11-02T17:57:03.130Z,16.10
2022-11-02T17:59:52.678Z,16.10
2022-11-02T18:02:41.628Z,16.10
2022-11-02T18:05:31.643Z,16.00
2022-11-02T18:08:20.768Z,16.00
2022-11-02T18:11:10.779Z,16.00
2022-11-02T18:14:01.608Z,16.00
2022-11-02T18:16:52.918Z,16.00
2022-11-02T18:19:42.122Z,16.00
2022-11-02T18:22:31.870Z,16.00
2022-11-02T18:28:15.792Z,16.00
2022-11-02T18:31:07.075Z,16.00
2022-11-02T18:33:56.806Z,16.00
2022-11-02T18:36:46.162Z,16.00
2022-11-02T18:39:35.648Z,16.00
2022-11-02T18:42:24.351Z,15.90
2022-11-02T18:45:16.180Z,15.90
2022-11-02T18:48:07.825Z,15.90
2022-11-02T18:50:57.709Z,15.60
2022-11-02T18:53:46.801Z,15.90
2022-11-02T18:56:36.169Z,15.90
2022-11-02T18:59:25.627Z,15.90
2022-11-02T19:02:15.857Z,15.90
2022-11-02T19:05:28.637Z,15.90
2022-11-02T19:08:35.167Z,15.90
2022-11-02T19:11:24.773Z,15.80
2022-11-02T19:14:14.053Z,15.90
2022-11-02T19:17:03.973Z,15.90
2022-11-02T19:19:52.986Z,15.90
2022-11-02T19:22:43.692Z,15.80
2022-11-02T19:25:32.842Z,15.90
2022-11-02T19:28:22.440Z,15.90
2022-11-02T19:31:11.199Z,15.90
2022-11-02T19:34:01.579Z,15.90
2022-11-02T19:36:51.694Z,15.80
2022-11-02T19:39:42.667Z,15.80
2022-11-02T19:42:32.060Z,15.80
2022-11-02T19:45:21.823Z,15.80
2022-11-02T19:48:11.043Z,15.80
2022-11-02T19:51:07.592Z,15.80
2022-11-02T19:53:58.111Z,15.80
2022-11-02T19:56:48.958Z,15.80
2022-11-02T19:59:38.401Z,15.80
2022-11-02T20:02:27.943Z,15.70
2022-11-02T20:05:17.268Z,15.70
2022-11-02T20:08:07.252Z,15.70
2022-11-02T20:11:02.660Z,15.80
2022-11-02T21:26:01.173Z,16.00
2022-11-02T21:28:50.683Z,16.00
2022-11-02T21:31:39.933Z,15.90
2022-11-02T21:34:29.149Z,15.90
2022-11-02T21:37:18.535Z,15.90
2022-11-02T21:40:09.098Z,15.80
2022-11-02T21:42:59.601Z,15.90
2022-11-02T21:45:53.492Z,15.80
2022-11-02T21:48:42.755Z,15.80
2022-11-02T21:51:31.670Z,15.80
2022-11-02T21:54:20.957Z,15.80
2022-11-02T21:57:09.985Z,15.80
2022-11-02T22:00:00.641Z,15.80
2022-11-02T22:02:50.215Z,15.80
2022-11-02T22:05:59.552Z,15.90
2022-11-02T22:08:48.867Z,15.90
2022-11-02T22:11:38.153Z,15.90
2022-11-02T22:14:27.446Z,15.90
2022-11-02T22:17:43.221Z,15.90
2022-11-02T22:20:28.045Z,15.90
2022-11-02T22:23:16.858Z,15.90
2022-11-02T22:26:07.555Z,15.70
2022-11-02T22:28:58.408Z,15.60
2022-11-02T22:31:47.701Z,15.60
2022-11-02T22:34:38.557Z,15.60
2022-11-02T22:37:45.123Z,15.70
2022-11-02T22:40:34.170Z,15.80
2022-11-02T22:43:22.928Z,15.80
2022-11-02T22:46:12.867Z,15.80
2022-11-02T22:49:02.886Z,15.90
2022-11-02T22:51:53.485Z,15.80
2022-11-02T22:54:42.590Z,15.80
2022-11-02T22:57:31.697Z,15.80
2022-11-02T23:00:21.242Z,15.90
2022-11-02T23:03:10.736Z,15.90
2022-11-02T23:06:00.010Z,15.90
2022-11-02T23:08:51.342Z,15.90
2022-11-02T23:11:40.939Z,15.90
2022-11-02T23:14:29.874Z,15.80
2022-11-02T23:17:18.977Z,15.80
2022-11-02T23:20:07.725Z,15.80
2022-11-02T23:23:17.638Z,15.80
2022-11-02T23:26:08.456Z,15.90
2022-11-02T23:29:23.885Z,15.90
2022-11-02T23:32:29.700Z,15.90
2022-11-02T23:35:36.563Z,15.90
2022-11-02T23:38:46.068Z,15.90
2022-11-02T23:41:39.033Z,15.90
2022-11-02T23:44:29.433Z,15.90
2022-11-02T23:47:18.704Z,15.80
2022-11-02T23:50:08.626Z,15.70
2022-11-02T23:53:20.668Z,15.60
2022-11-02T23:56:33.387Z,15.60
2022-11-02T23:59:24.307Z,15.70
